sensor_id;sensor_type;location;lat;lon;timestamp;temperature;humidity
12959;DHT22;6544;51.666;6.634;2023-01-24T00:00:33;4.20;76.40
12959;DHT22;6544;51.666;6.634;2023-01-24T00:03:00;4.10;39.90
12959;DHT22;6544;51.666;6.634;2023-01-24T00:05:29;4.10;47.30
12959;DHT22;6544;51.666;6.634;2023-01-24T00:07:55;4.00;30.00
12959;DHT22;6544;51.666;6.634;2023-01-24T00:10:22;4.00;55.50
12959;DHT22;6544;51.666;6.634;2023-01-24T00:12:50;3.90;85.00
12959;DHT22;6544;51.666;6.634;2023-01-24T00:15:17;3.80;97.30
12959;DHT22;6544;51.666;6.634;2023-01-24T00:17:44;3.90;93.90
12959;DHT22;6544;51.666;6.634;2023-01-24T00:20:11;3.80;89.30
12959;DHT22;6544;51.666;6.634;2023-01-24T00:22:40;3.90;99.90
12959;DHT22;6544;51.666;6.634;2023-01-24T00:25:07;3.90;99.90
12959;DHT22;6544;51.666;6.634;2023-01-24T00:27:34;4.00;99.90
12959;DHT22;6544;51.666;6.634;2023-01-24T00:30:02;4.00;98.50
12959;DHT22;6544;51.666;6.634;2023-01-24T00:32:30;4.00;98.70
12959;DHT22;6544;51.666;6.634;2023-01-24T00:34:56;4.10;80.40
12959;DHT22;6544;51.666;6.634;2023-01-24T00:37:23;3.90;90.70
12959;DHT22;6544;51.666;6.634;2023-01-24T00:39:52;3.90;99.90
12959;DHT22;6544;51.666;6.634;2023-01-24T00:42:19;3.90;91.00
12959;DHT22;6544;51.666;6.634;2023-01-24T00:44:46;3.90;68.80
12959;DHT22;6544;51.666;6.634;2023-01-24T00:47:13;3.90;94.10
12959;DHT22;6544;51.666;6.634;2023-01-24T00:49:40;3.90;98.80
12959;DHT22;6544;51.666;6.634;2023-01-24T00:52:07;3.90;91.30
12959;DHT22;6544;51.666;6.634;2023-01-24T00:54:34;3.80;99.80
12959;DHT22;6544;51.666;6.634;2023-01-24T00:57:02;3.70;99.90
12959;DHT22;6544;51.666;6.634;2023-01-24T00:59:29;3.70;99.90
12959;DHT22;6544;51.666;6.634;2023-01-24T01:01:56;3.70;99.90
12959;DHT22;6544;51.666;6.634;2023-01-24T01:04:23;3.80;99.90
12959;DHT22;6544;51.666;6.634;2023-01-24T01:06:49;3.80;99.90
12959;DHT22;6544;51.666;6.634;2023-01-24T01:09:16;3.70;99.90
12959;DHT22;6544;51.666;6.634;2023-01-24T01:11:43;3.80;99.90
12959;DHT22;6544;51.666;6.634;2023-01-24T01:14:12;3.80;99.90
12959;DHT22;6544;51.666;6.634;2023-01-24T01:16:38;3.70;99.90
12959;DHT22;6544;51.666;6.634;2023-01-24T01:19:05;3.70;99.90
12959;DHT22;6544;51.666;6.634;2023-01-24T01:21:32;3.80;99.90
12959;DHT22;6544;51.666;6.634;2023-01-24T01:23:59;3.80;99.90
12959;DHT22;6544;51.666;6.634;2023-01-24T01:26:26;3.80;98.20
12959;DHT22;6544;51.666;6.634;2023-01-24T01:28:53;3.80;99.90
12959;DHT22;6544;51.666;6.634;2023-01-24T01:31:22;3.80;99.00
12959;DHT22;6544;51.666;6.634;2023-01-24T01:33:48;3.70;99.90
12959;DHT22;6544;51.666;6.634;2023-01-24T01:36:15;3.70;99.90
12959;DHT22;6544;51.666;6.634;2023-01-24T01:38:42;3.70;99.90
12959;DHT22;6544;51.666;6.634;2023-01-24T01:41:11;3.60;99.90
12959;DHT22;6544;51.666;6.634;2023-01-24T01:43:38;3.60;99.90
12959;DHT22;6544;51.666;6.634;2023-01-24T01:46:28;3.60;99.90
12959;DHT22;6544;51.666;6.634;2023-01-24T01:48:59;3.70;99.90
12959;DHT22;6544;51.666;6.634;2023-01-24T01:51:30;3.60;99.90
12959;DHT22;6544;51.666;6.634;2023-01-24T01:54:00;3.70;99.90
12959;DHT22;6544;51.666;6.634;2023-01-24T01:56:31;3.60;99.90
12959;DHT22;6544;51.666;6.634;2023-01-24T02:02:22;3.50;99.90
12959;DHT22;6544;51.666;6.634;2023-01-24T02:04:52;3.50;99.90
12959;DHT22;6544;51.666;6.634;2023-01-24T02:07:22;3.50;99.90
12959;DHT22;6544;51.666;6.634;2023-01-24T02:09:52;3.60;99.90
12959;DHT22;6544;51.666;6.634;2023-01-24T02:12:22;3.60;99.90
12959;DHT22;6544;51.666;6.634;2023-01-24T02:14:52;3.50;99.90
12959;DHT22;6544;51.666;6.634;2023-01-24T02:17:39;3.50;99.90
12959;DHT22;6544;51.666;6.634;2023-01-24T02:20:18;3.50;99.90
12959;DHT22;6544;51.666;6.634;2023-01-24T02:22:57;3.50;99.90
12959;DHT22;6544;51.666;6.634;2023-01-24T02:25:33;3.50;99.90
12959;DHT22;6544;51.666;6.634;2023-01-24T02:28:06;3.60;99.90
12959;DHT22;6544;51.666;6.634;2023-01-24T02:30:34;3.60;99.90
12959;DHT22;6544;51.666;6.634;2023-01-24T02:36:26;3.70;99.90
12959;DHT22;6544;51.666;6.634;2023-01-24T02:38:57;3.60;99.90
12959;DHT22;6544;51.666;6.634;2023-01-24T02:41:30;3.60;99.90
12959;DHT22;6544;51.666;6.634;2023-01-24T02:44:05;3.60;99.90
12959;DHT22;6544;51.666;6.634;2023-01-24T02:46:36;3.60;99.90
12959;DHT22;6544;51.666;6.634;2023-01-24T02:49:06;3.60;99.90
12959;DHT22;6544;51.666;6.634;2023-01-24T02:51:35;3.70;99.90
12959;DHT22;6544;51.666;6.634;2023-01-24T02:54:19;3.70;99.90
12959;DHT22;6544;51.666;6.634;2023-01-24T02:56:46;3.60;99.90
12959;DHT22;6544;51.666;6.634;2023-01-24T02:59:31;3.60;99.90
12959;DHT22;6544;51.666;6.634;2023-01-24T03:05:12;3.50;99.90
12959;DHT22;6544;51.666;6.634;2023-01-24T03:07:39;3.50;99.90
12959;DHT22;6544;51.666;6.634;2023-01-24T03:10:10;3.50;99.90
12959;DHT22;6544;51.666;6.634;2023-01-24T03:12:37;3.50;99.90
12959;DHT22;6544;51.666;6.634;2023-01-24T03:15:23;3.50;99.90
12959;DHT22;6544;51.666;6.634;2023-01-24T03:18:08;3.40;99.90
12959;DHT22;6544;51.666;6.634;2023-01-24T03:20:52;3.50;99.90
12959;DHT22;6544;51.666;6.634;2023-01-24T03:23:36;3.40;99.90
12959;DHT22;6544;51.666;6.634;2023-01-24T03:26:20;3.50;99.90
12959;DHT22;6544;51.666;6.634;2023-01-24T03:29:05;3.50;99.90
12959;DHT22;6544;51.666;6.634;2023-01-24T03:31:51;3.40;99.90
12959;DHT22;6544;51.666;6.634;2023-01-24T03:34:35;3.50;99.90
12959;DHT22;6544;51.666;6.634;2023-01-24T03:37:11;3.50;99.90
12959;DHT22;6544;51.666;6.634;2023-01-24T03:39:38;3.40;99.90
12959;DHT22;6544;51.666;6.634;2023-01-24T03:42:30;3.30;99.90
12959;DHT22;6544;51.666;6.634;2023-01-24T03:44:57;3.40;99.90
12959;DHT22;6544;51.666;6.634;2023-01-24T03:47:28;3.40;99.90
12959;DHT22;6544;51.666;6.634;2023-01-24T03:49:55;3.50;99.90
12959;DHT22;6544;51.666;6.634;2023-01-24T03:52:39;3.50;99.90
12959;DHT22;6544;51.666;6.634;2023-01-24T03:55:06;3.50;99.90
12959;DHT22;6544;51.666;6.634;2023-01-24T03:57:33;3.50;99.90
12959;DHT22;6544;51.666;6.634;2023-01-24T04:00:00;3.40;99.90
12959;DHT22;6544;51.666;6.634;2023-01-24T04:02:29;3.50;99.90
12959;DHT22;6544;51.666;6.634;2023-01-24T04:04:55;3.40;99.90
12959;DHT22;6544;51.666;6.634;2023-01-24T04:07:41;3.40;99.90
12959;DHT22;6544;51.666;6.634;2023-01-24T04:10:11;3.40;99.90
12959;DHT22;6544;51.666;6.634;2023-01-24T04:12:39;3.40;99.90
12959;DHT22;6544;51.666;6.634;2023-01-24T04:15:07;3.40;99.90
12959;DHT22;6544;51.666;6.634;2023-01-24T04:17:35;3.40;99.90
12959;DHT22;6544;51.666;6.634;2023-01-24T04:20:02;3.40;99.90
12959;DHT22;6544;51.666;6.634;2023-01-24T04:22:29;3.50;99.90
12959;DHT22;6544;51.666;6.634;2023-01-24T04:24:56;3.50;99.90
12959;DHT22;6544;51.666;6.634;2023-01-24T04:27:23;3.50;99.90
12959;DHT22;6544;51.666;6.634;2023-01-24T04:29:50;3.50;99.90
12959;DHT22;6544;51.666;6.634;2023-01-24T04:32:17;3.50;99.90
12959;DHT22;6544;51.666;6.634;2023-01-24T04:34:45;3.60;99.90
12959;DHT22;6544;51.666;6.634;2023-01-24T04:37:12;3.60;99.90
12959;DHT22;6544;51.666;6.634;2023-01-24T04:39:39;3.60;92.40
12959;DHT22;6544;51.666;6.634;2023-01-24T04:45:28;3.40;99.90
12959;DHT22;6544;51.666;6.634;2023-01-24T04:47:55;3.40;99.90
12959;DHT22;6544;51.666;6.634;2023-01-24T04:50:23;3.40;99.90
12959;DHT22;6544;51.666;6.634;2023-01-24T04:52:50;3.50;99.90
12959;DHT22;6544;51.666;6.634;2023-01-24T04:55:17;3.40;87.40
12959;DHT22;6544;51.666;6.634;2023-01-24T04:57:44;3.40;99.90
12959;DHT22;6544;51.666;6.634;2023-01-24T05:00:11;3.40;99.90
12959;DHT22;6544;51.666;6.634;2023-01-24T05:02:38;3.30;99.90
12959;DHT22;6544;51.666;6.634;2023-01-24T05:05:06;3.40;99.90
12959;DHT22;6544;51.666;6.634;2023-01-24T05:07:35;3.40;99.90
12959;DHT22;6544;51.666;6.634;2023-01-24T05:10:02;3.40;99.90
12959;DHT22;6544;51.666;6.634;2023-01-24T05:12:29;3.40;87.20
12959;DHT22;6544;51.666;6.634;2023-01-24T05:14:56;3.40;96.60
12959;DHT22;6544;51.666;6.634;2023-01-24T05:17:23;3.40;53.40
12959;DHT22;6544;51.666;6.634;2023-01-24T05:19:49;3.40;55.70
12959;DHT22;6544;51.666;6.634;2023-01-24T05:22:17;3.30;59.50
12959;DHT22;6544;51.666;6.634;2023-01-24T05:24:45;3.20;99.90
12959;DHT22;6544;51.666;6.634;2023-01-24T05:27:12;3.20;99.90
12959;DHT22;6544;51.666;6.634;2023-01-24T05:29:38;3.20;99.90
12959;DHT22;6544;51.666;6.634;2023-01-24T05:32:05;3.20;99.90
12959;DHT22;6544;51.666;6.634;2023-01-24T05:34:32;3.20;99.90
12959;DHT22;6544;51.666;6.634;2023-01-24T05:36:59;3.20;99.90
12959;DHT22;6544;51.666;6.634;2023-01-24T05:39:26;3.20;99.90
12959;DHT22;6544;51.666;6.634;2023-01-24T05:41:54;3.20;99.90
12959;DHT22;6544;51.666;6.634;2023-01-24T05:44:21;3.10;99.90
12959;DHT22;6544;51.666;6.634;2023-01-24T05:46:48;3.10;99.90
12959;DHT22;6544;51.666;6.634;2023-01-24T05:49:15;3.10;99.90
12959;DHT22;6544;51.666;6.634;2023-01-24T05:51:41;3.20;99.90
12959;DHT22;6544;51.666;6.634;2023-01-24T05:54:08;3.20;99.90
12959;DHT22;6544;51.666;6.634;2023-01-24T05:56:35;3.20;99.90
12959;DHT22;6544;51.666;6.634;2023-01-24T05:59:03;3.30;99.90
12959;DHT22;6544;51.666;6.634;2023-01-24T06:01:30;3.40;99.90
12959;DHT22;6544;51.666;6.634;2023-01-24T06:03:57;3.30;99.90
12959;DHT22;6544;51.666;6.634;2023-01-24T06:06:24;3.20;99.90
12959;DHT22;6544;51.666;6.634;2023-01-24T06:08:51;3.20;99.90
12959;DHT22;6544;51.666;6.634;2023-01-24T06:11:19;3.30;99.90
12959;DHT22;6544;51.666;6.634;2023-01-24T06:13:47;3.30;99.90
12959;DHT22;6544;51.666;6.634;2023-01-24T06:16:16;3.40;99.90
12959;DHT22;6544;51.666;6.634;2023-01-24T06:18:44;3.30;95.00
12959;DHT22;6544;51.666;6.634;2023-01-24T06:21:19;3.30;87.90
12959;DHT22;6544;51.666;6.634;2023-01-24T06:23:49;3.40;61.20
12959;DHT22;6544;51.666;6.634;2023-01-24T06:26:16;3.40;54.30
12959;DHT22;6544;51.666;6.634;2023-01-24T06:28:43;3.30;30.30
12959;DHT22;6544;51.666;6.634;2023-01-24T06:31:21;3.30;31.80
12959;DHT22;6544;51.666;6.634;2023-01-24T06:34:03;3.30;37.60
12959;DHT22;6544;51.666;6.634;2023-01-24T06:36:56;3.20;39.60
12959;DHT22;6544;51.666;6.634;2023-01-24T06:39:25;3.30;48.60
12959;DHT22;6544;51.666;6.634;2023-01-24T06:41:52;3.20;38.60
12959;DHT22;6544;51.666;6.634;2023-01-24T06:44:20;3.20;41.30
12959;DHT22;6544;51.666;6.634;2023-01-24T06:46:49;3.20;31.90
12959;DHT22;6544;51.666;6.634;2023-01-24T06:49:17;3.30;57.60
12959;DHT22;6544;51.666;6.634;2023-01-24T06:51:49;3.30;43.30
12959;DHT22;6544;51.666;6.634;2023-01-24T06:54:17;3.30;59.80
12959;DHT22;6544;51.666;6.634;2023-01-24T06:56:47;3.20;32.10
12959;DHT22;6544;51.666;6.634;2023-01-24T06:59:15;3.00;52.50
12959;DHT22;6544;51.666;6.634;2023-01-24T07:01:43;3.00;37.40
12959;DHT22;6544;51.666;6.634;2023-01-24T07:04:12;3.10;18.20
12959;DHT22;6544;51.666;6.634;2023-01-24T07:06:39;3.10;30.00
12959;DHT22;6544;51.666;6.634;2023-01-24T07:09:06;3.10;16.10
12959;DHT22;6544;51.666;6.634;2023-01-24T07:11:33;3.10;21.20
12959;DHT22;6544;51.666;6.634;2023-01-24T07:13:59;3.10;31.60
12959;DHT22;6544;51.666;6.634;2023-01-24T07:16:29;3.10;30.80
12959;DHT22;6544;51.666;6.634;2023-01-24T07:18:56;3.00;40.80
12959;DHT22;6544;51.666;6.634;2023-01-24T07:21:25;3.10;56.90
12959;DHT22;6544;51.666;6.634;2023-01-24T07:23:53;3.00;62.70
12959;DHT22;6544;51.666;6.634;2023-01-24T07:26:23;3.10;53.30
12959;DHT22;6544;51.666;6.634;2023-01-24T07:28:49;3.20;43.10
12959;DHT22;6544;51.666;6.634;2023-01-24T07:31:17;3.00;13.20
12959;DHT22;6544;51.666;6.634;2023-01-24T07:33:44;3.10;41.70
12959;DHT22;6544;51.666;6.634;2023-01-24T07:36:11;3.10;20.30
12959;DHT22;6544;51.666;6.634;2023-01-24T07:38:40;3.10;35.00
12959;DHT22;6544;51.666;6.634;2023-01-24T07:41:07;3.10;19.00
12959;DHT22;6544;51.666;6.634;2023-01-24T07:43:34;3.00;18.00
12959;DHT22;6544;51.666;6.634;2023-01-24T07:46:01;3.00;23.00
12959;DHT22;6544;51.666;6.634;2023-01-24T07:48:28;3.00;19.60
12959;DHT22;6544;51.666;6.634;2023-01-24T07:50:58;2.90;21.30
12959;DHT22;6544;51.666;6.634;2023-01-24T07:53:25;2.90;16.00
12959;DHT22;6544;51.666;6.634;2023-01-24T07:55:53;2.90;16.60
12959;DHT22;6544;51.666;6.634;2023-01-24T07:58:20;2.90;17.60
12959;DHT22;6544;51.666;6.634;2023-01-24T08:00:47;2.90;3.90
12959;DHT22;6544;51.666;6.634;2023-01-24T08:03:14;3.00;13.40
12959;DHT22;6544;51.666;6.634;2023-01-24T08:07:36;2.90;22.00
12959;DHT22;6544;51.666;6.634;2023-01-24T08:09:23;2.80;44.50
12959;DHT22;6544;51.666;6.634;2023-01-24T08:11:52;2.90;33.20
12959;DHT22;6544;51.666;6.634;2023-01-24T08:14:18;3.00;9.80
12959;DHT22;6544;51.666;6.634;2023-01-24T08:16:47;3.00;17.60
12959;DHT22;6544;51.666;6.634;2023-01-24T08:19:14;3.00;23.40
12959;DHT22;6544;51.666;6.634;2023-01-24T08:21:41;3.10;31.90
12959;DHT22;6544;51.666;6.634;2023-01-24T08:24:08;3.10;28.30
12959;DHT22;6544;51.666;6.634;2023-01-24T08:26:35;3.10;23.00
12959;DHT22;6544;51.666;6.634;2023-01-24T08:29:03;3.20;18.80
12959;DHT22;6544;51.666;6.634;2023-01-24T08:31:30;3.10;14.70
12959;DHT22;6544;51.666;6.634;2023-01-24T08:33:57;3.10;28.90
12959;DHT22;6544;51.666;6.634;2023-01-24T08:36:24;3.00;1.00
12959;DHT22;6544;51.666;6.634;2023-01-24T08:38:51;2.90;19.10
12959;DHT22;6544;51.666;6.634;2023-01-24T08:41:18;2.90;14.60
12959;DHT22;6544;51.666;6.634;2023-01-24T08:43:45;3.00;17.90
12959;DHT22;6544;51.666;6.634;2023-01-24T08:46:13;3.10;7.90
12959;DHT22;6544;51.666;6.634;2023-01-24T08:48:40;3.10;1.00
12959;DHT22;6544;51.666;6.634;2023-01-24T08:51:07;3.00;1.00
12959;DHT22;6544;51.666;6.634;2023-01-24T08:53:33;3.00;2.40
12959;DHT22;6544;51.666;6.634;2023-01-24T08:56:01;3.00;1.00
12959;DHT22;6544;51.666;6.634;2023-01-24T08:58:28;3.10;1.00
12959;DHT22;6544;51.666;6.634;2023-01-24T09:00:55;3.00;1.00
12959;DHT22;6544;51.666;6.634;2023-01-24T09:03:23;2.90;1.00
12959;DHT22;6544;51.666;6.634;2023-01-24T09:05:55;2.90;1.00
12959;DHT22;6544;51.666;6.634;2023-01-24T09:08:22;3.00;1.00
12959;DHT22;6544;51.666;6.634;2023-01-24T09:10:49;3.00;1.00
12959;DHT22;6544;51.666;6.634;2023-01-24T09:13:16;3.00;1.00
12959;DHT22;6544;51.666;6.634;2023-01-24T09:15:43;3.10;1.00
12959;DHT22;6544;51.666;6.634;2023-01-24T09:18:10;3.00;1.00
12959;DHT22;6544;51.666;6.634;2023-01-24T09:20:38;3.00;1.00
12959;DHT22;6544;51.666;6.634;2023-01-24T09:23:07;3.00;1.00
12959;DHT22;6544;51.666;6.634;2023-01-24T09:25:35;3.00;1.00
12959;DHT22;6544;51.666;6.634;2023-01-24T09:28:01;3.10;1.00
12959;DHT22;6544;51.666;6.634;2023-01-24T09:30:28;3.00;1.00
12959;DHT22;6544;51.666;6.634;2023-01-24T09:32:57;3.00;1.00
12959;DHT22;6544;51.666;6.634;2023-01-24T09:35:24;3.00;1.00
12959;DHT22;6544;51.666;6.634;2023-01-24T09:37:52;3.00;1.00
12959;DHT22;6544;51.666;6.634;2023-01-24T09:40:22;3.00;1.00
12959;DHT22;6544;51.666;6.634;2023-01-24T09:42:58;3.00;1.00
12959;DHT22;6544;51.666;6.634;2023-01-24T09:45:30;3.10;1.00
12959;DHT22;6544;51.666;6.634;2023-01-24T09:48:00;3.20;1.00
12959;DHT22;6544;51.666;6.634;2023-01-24T09:50:34;3.20;1.00
12959;DHT22;6544;51.666;6.634;2023-01-24T09:53:11;3.20;1.00
12959;DHT22;6544;51.666;6.634;2023-01-24T09:55:41;3.20;1.00
12959;DHT22;6544;51.666;6.634;2023-01-24T09:58:17;3.20;1.00
12959;DHT22;6544;51.666;6.634;2023-01-24T10:00:59;3.20;1.00
12959;DHT22;6544;51.666;6.634;2023-01-24T10:03:27;3.30;1.00
12959;DHT22;6544;51.666;6.634;2023-01-24T10:05:56;3.30;1.00
12959;DHT22;6544;51.666;6.634;2023-01-24T10:08:32;3.30;1.00
12959;DHT22;6544;51.666;6.634;2023-01-24T10:11:14;3.20;1.00
12959;DHT22;6544;51.666;6.634;2023-01-24T10:14:02;3.30;1.00
12959;DHT22;6544;51.666;6.634;2023-01-24T10:17:02;3.20;1.00
12959;DHT22;6544;51.666;6.634;2023-01-24T10:19:51;3.20;1.00
12959;DHT22;6544;51.666;6.634;2023-01-24T10:22:34;3.30;1.00
12959;DHT22;6544;51.666;6.634;2023-01-24T10:25:12;3.20;1.00
12959;DHT22;6544;51.666;6.634;2023-01-24T10:27:43;3.20;1.00
12959;DHT22;6544;51.666;6.634;2023-01-24T10:30:15;3.20;1.00
12959;DHT22;6544;51.666;6.634;2023-01-24T10:32:45;3.10;1.00
12959;DHT22;6544;51.666;6.634;2023-01-24T10:35:14;3.00;1.00
12959;DHT22;6544;51.666;6.634;2023-01-24T10:37:45;2.90;1.00
12959;DHT22;6544;51.666;6.634;2023-01-24T10:40:17;2.90;1.00
12959;DHT22;6544;51.666;6.634;2023-01-24T10:42:44;3.00;1.00
12959;DHT22;6544;51.666;6.634;2023-01-24T10:45:27;3.00;1.00
12959;DHT22;6544;51.666;6.634;2023-01-24T10:47:58;3.10;1.00
12959;DHT22;6544;51.666;6.634;2023-01-24T10:50:34;3.10;1.00
12959;DHT22;6544;51.666;6.634;2023-01-24T10:53:12;3.20;1.00
12959;DHT22;6544;51.666;6.634;2023-01-24T10:55:40;3.30;1.00
12959;DHT22;6544;51.666;6.634;2023-01-24T10:58:22;3.30;1.00
12959;DHT22;6544;51.666;6.634;2023-01-24T11:00:56;3.30;1.00
12959;DHT22;6544;51.666;6.634;2023-01-24T11:03:27;3.40;1.00
12959;DHT22;6544;51.666;6.634;2023-01-24T11:05:55;3.50;1.00
12959;DHT22;6544;51.666;6.634;2023-01-24T11:08:24;3.50;1.00
12959;DHT22;6544;51.666;6.634;2023-01-24T11:10:53;3.50;1.00
12959;DHT22;6544;51.666;6.634;2023-01-24T11:13:36;3.50;1.00
12959;DHT22;6544;51.666;6.634;2023-01-24T11:16:06;3.50;1.00
12959;DHT22;6544;51.666;6.634;2023-01-24T11:18:34;3.50;1.00
12959;DHT22;6544;51.666;6.634;2023-01-24T11:21:08;3.60;1.00
12959;DHT22;6544;51.666;6.634;2023-01-24T11:23:35;3.50;1.00
12959;DHT22;6544;51.666;6.634;2023-01-24T11:26:06;3.50;1.00
12959;DHT22;6544;51.666;6.634;2023-01-24T11:28:56;3.70;1.00
12959;DHT22;6544;51.666;6.634;2023-01-24T11:31:27;3.70;1.00
12959;DHT22;6544;51.666;6.634;2023-01-24T11:34:16;3.80;1.00
12959;DHT22;6544;51.666;6.634;2023-01-24T11:36:55;3.80;1.00
12959;DHT22;6544;51.666;6.634;2023-01-24T11:39:36;3.80;1.00
12959;DHT22;6544;51.666;6.634;2023-01-24T11:42:13;3.80;1.00
12959;DHT22;6544;51.666;6.634;2023-01-24T11:44:58;3.60;1.00
12959;DHT22;6544;51.666;6.634;2023-01-24T11:47:33;3.60;1.00
12959;DHT22;6544;51.666;6.634;2023-01-24T11:50:17;3.60;1.00
12959;DHT22;6544;51.666;6.634;2023-01-24T11:52:58;3.70;1.00
12959;DHT22;6544;51.666;6.634;2023-01-24T11:55:39;3.50;1.00
12959;DHT22;6544;51.666;6.634;2023-01-24T11:58:37;3.50;1.00
12959;DHT22;6544;51.666;6.634;2023-01-24T12:01:14;3.50;1.00
12959;DHT22;6544;51.666;6.634;2023-01-24T12:03:53;3.40;1.00
12959;DHT22;6544;51.666;6.634;2023-01-24T12:06:30;3.40;1.00
12959;DHT22;6544;51.666;6.634;2023-01-24T12:09:13;3.40;1.00
12959;DHT22;6544;51.666;6.634;2023-01-24T12:11:48;3.50;1.00
12959;DHT22;6544;51.666;6.634;2023-01-24T12:14:42;3.60;1.00
12959;DHT22;6544;51.666;6.634;2023-01-24T12:17:24;3.70;1.00
12959;DHT22;6544;51.666;6.634;2023-01-24T12:20:11;3.70;1.00
12959;DHT22;6544;51.666;6.634;2023-01-24T12:22:42;3.80;1.00
12959;DHT22;6544;51.666;6.634;2023-01-24T12:25:16;3.90;1.00
12959;DHT22;6544;51.666;6.634;2023-01-24T12:27:46;3.90;1.00
12959;DHT22;6544;51.666;6.634;2023-01-24T12:30:22;3.90;1.00
12959;DHT22;6544;51.666;6.634;2023-01-24T12:32:57;4.00;1.00
12959;DHT22;6544;51.666;6.634;2023-01-24T12:35:29;4.00;1.00
12959;DHT22;6544;51.666;6.634;2023-01-24T12:38:03;3.90;1.00
12959;DHT22;6544;51.666;6.634;2023-01-24T12:40:42;3.90;1.00
12959;DHT22;6544;51.666;6.634;2023-01-24T12:43:18;4.00;1.00
12959;DHT22;6544;51.666;6.634;2023-01-24T12:45:54;3.90;1.00
12959;DHT22;6544;51.666;6.634;2023-01-24T12:48:28;3.90;1.00
12959;DHT22;6544;51.666;6.634;2023-01-24T12:51:07;3.90;1.00
12959;DHT22;6544;51.666;6.634;2023-01-24T12:53:39;3.80;1.00
12959;DHT22;6544;51.666;6.634;2023-01-24T12:56:13;3.80;1.00
12959;DHT22;6544;51.666;6.634;2023-01-24T12:58:44;3.80;1.00
12959;DHT22;6544;51.666;6.634;2023-01-24T13:01:45;3.90;1.00
12959;DHT22;6544;51.666;6.634;2023-01-24T13:04:22;3.90;1.00
12959;DHT22;6544;51.666;6.634;2023-01-24T13:07:01;4.00;1.00
12959;DHT22;6544;51.666;6.634;2023-01-24T13:09:36;3.90;1.00
12959;DHT22;6544;51.666;6.634;2023-01-24T13:12:07;3.90;1.00
12959;DHT22;6544;51.666;6.634;2023-01-24T13:14:42;3.70;1.00
12959;DHT22;6544;51.666;6.634;2023-01-24T13:17:20;3.70;1.00
12959;DHT22;6544;51.666;6.634;2023-01-24T13:20:08;3.60;1.00
12959;DHT22;6544;51.666;6.634;2023-01-24T13:22:50;3.60;1.00
12959;DHT22;6544;51.666;6.634;2023-01-24T13:25:32;3.70;1.00
12959;DHT22;6544;51.666;6.634;2023-01-24T13:28:05;3.80;1.00
12959;DHT22;6544;51.666;6.634;2023-01-24T13:30:43;3.80;1.00
12959;DHT22;6544;51.666;6.634;2023-01-24T13:33:16;3.90;1.00
12959;DHT22;6544;51.666;6.634;2023-01-24T13:35:48;3.80;1.00
12959;DHT22;6544;51.666;6.634;2023-01-24T13:38:18;4.00;1.00
12959;DHT22;6544;51.666;6.634;2023-01-24T13:41:00;4.00;1.00
12959;DHT22;6544;51.666;6.634;2023-01-24T13:43:52;4.00;1.00
12959;DHT22;6544;51.666;6.634;2023-01-24T13:49:45;4.00;1.00
12959;DHT22;6544;51.666;6.634;2023-01-24T13:52:39;4.00;1.00
12959;DHT22;6544;51.666;6.634;2023-01-24T13:58:21;4.00;1.00
12959;DHT22;6544;51.666;6.634;2023-01-24T14:00:52;4.10;1.00
12959;DHT22;6544;51.666;6.634;2023-01-24T14:03:22;4.00;1.00
12959;DHT22;6544;51.666;6.634;2023-01-24T14:05:55;4.00;1.00
12959;DHT22;6544;51.666;6.634;2023-01-24T14:11:51;4.10;1.00
12959;DHT22;6544;51.666;6.634;2023-01-24T14:14:35;4.10;1.00
12959;DHT22;6544;51.666;6.634;2023-01-24T14:20:02;4.10;1.00
12959;DHT22;6544;51.666;6.634;2023-01-24T14:22:37;4.10;1.00
12959;DHT22;6544;51.666;6.634;2023-01-24T14:25:34;4.00;1.00
12959;DHT22;6544;51.666;6.634;2023-01-24T14:28:14;3.80;1.00
12959;DHT22;6544;51.666;6.634;2023-01-24T14:30:44;3.80;1.00
12959;DHT22;6544;51.666;6.634;2023-01-24T14:33:39;3.70;1.00
12959;DHT22;6544;51.666;6.634;2023-01-24T14:36:19;3.60;1.00
12959;DHT22;6544;51.666;6.634;2023-01-24T14:41:56;3.50;1.00
12959;DHT22;6544;51.666;6.634;2023-01-24T14:44:25;3.60;1.00
12959;DHT22;6544;51.666;6.634;2023-01-24T14:46:57;3.40;1.00
12959;DHT22;6544;51.666;6.634;2023-01-24T14:49:27;3.40;1.00
12959;DHT22;6544;51.666;6.634;2023-01-24T14:51:54;3.50;1.00
12959;DHT22;6544;51.666;6.634;2023-01-24T14:54:24;3.50;1.00
12959;DHT22;6544;51.666;6.634;2023-01-24T14:56:51;3.70;1.00
12959;DHT22;6544;51.666;6.634;2023-01-24T14:59:19;3.80;1.00
12959;DHT22;6544;51.666;6.634;2023-01-24T15:05:00;3.70;1.00
12959;DHT22;6544;51.666;6.634;2023-01-24T15:07:27;3.80;1.00
12959;DHT22;6544;51.666;6.634;2023-01-24T15:09:55;3.80;1.00
12959;DHT22;6544;51.666;6.634;2023-01-24T15:12:29;3.80;1.00
12959;DHT22;6544;51.666;6.634;2023-01-24T15:15:00;3.70;1.00
12959;DHT22;6544;51.666;6.634;2023-01-24T15:17:29;3.80;1.00
12959;DHT22;6544;51.666;6.634;2023-01-24T15:19:58;3.80;1.00
12959;DHT22;6544;51.666;6.634;2023-01-24T15:22:27;3.80;1.00
12959;DHT22;6544;51.666;6.634;2023-01-24T15:24:58;3.70;1.00
12959;DHT22;6544;51.666;6.634;2023-01-24T15:27:36;3.70;1.00
12959;DHT22;6544;51.666;6.634;2023-01-24T15:30:11;3.70;1.00
12959;DHT22;6544;51.666;6.634;2023-01-24T15:32:40;3.60;1.00
12959;DHT22;6544;51.666;6.634;2023-01-24T15:35:31;3.70;1.00
12959;DHT22;6544;51.666;6.634;2023-01-24T15:38:12;3.70;1.00
12959;DHT22;6544;51.666;6.634;2023-01-24T15:40:54;3.60;1.00
12959;DHT22;6544;51.666;6.634;2023-01-24T15:43:27;3.60;1.00
12959;DHT22;6544;51.666;6.634;2023-01-24T15:46:27;3.70;1.00
12959;DHT22;6544;51.666;6.634;2023-01-24T15:49:30;3.60;1.00
12959;DHT22;6544;51.666;6.634;2023-01-24T15:52:19;3.60;1.00
12959;DHT22;6544;51.666;6.634;2023-01-24T15:54:49;3.50;1.00
12959;DHT22;6544;51.666;6.634;2023-01-24T15:57:22;3.50;1.00
12959;DHT22;6544;51.666;6.634;2023-01-24T15:59:52;3.60;1.00
12959;DHT22;6544;51.666;6.634;2023-01-24T16:02:20;3.60;1.00
12959;DHT22;6544;51.666;6.634;2023-01-24T16:04:47;3.60;1.00
12959;DHT22;6544;51.666;6.634;2023-01-24T16:07:15;3.60;1.00
12959;DHT22;6544;51.666;6.634;2023-01-24T16:09:44;3.60;1.00
12959;DHT22;6544;51.666;6.634;2023-01-24T16:12:13;3.60;1.00
12959;DHT22;6544;51.666;6.634;2023-01-24T16:14:46;3.60;1.00
12959;DHT22;6544;51.666;6.634;2023-01-24T16:17:16;3.60;1.00
12959;DHT22;6544;51.666;6.634;2023-01-24T16:19:43;3.60;1.00
12959;DHT22;6544;51.666;6.634;2023-01-24T16:22:10;3.60;1.00
12959;DHT22;6544;51.666;6.634;2023-01-24T16:24:37;3.50;1.00
12959;DHT22;6544;51.666;6.634;2023-01-24T16:27:04;3.40;1.00
12959;DHT22;6544;51.666;6.634;2023-01-24T16:29:33;3.40;1.00
12959;DHT22;6544;51.666;6.634;2023-01-24T16:32:01;3.40;1.00
12959;DHT22;6544;51.666;6.634;2023-01-24T16:34:28;3.50;1.00
12959;DHT22;6544;51.666;6.634;2023-01-24T16:36:55;3.40;1.00
12959;DHT22;6544;51.666;6.634;2023-01-24T16:39:22;3.30;1.00
12959;DHT22;6544;51.666;6.634;2023-01-24T16:41:50;3.40;1.00
12959;DHT22;6544;51.666;6.634;2023-01-24T16:44:17;3.40;1.00
12959;DHT22;6544;51.666;6.634;2023-01-24T16:46:48;3.40;1.00
12959;DHT22;6544;51.666;6.634;2023-01-24T16:49:17;3.50;1.00
12959;DHT22;6544;51.666;6.634;2023-01-24T16:51:46;3.40;1.00
12959;DHT22;6544;51.666;6.634;2023-01-24T16:54:17;3.40;1.00
12959;DHT22;6544;51.666;6.634;2023-01-24T16:56:44;3.40;1.00
12959;DHT22;6544;51.666;6.634;2023-01-24T16:59:11;3.20;1.00
12959;DHT22;6544;51.666;6.634;2023-01-24T17:01:39;3.20;1.00
12959;DHT22;6544;51.666;6.634;2023-01-24T17:04:06;3.30;1.00
12959;DHT22;6544;51.666;6.634;2023-01-24T17:06:35;3.30;1.00
12959;DHT22;6544;51.666;6.634;2023-01-24T17:09:09;3.30;1.00
12959;DHT22;6544;51.666;6.634;2023-01-24T17:11:36;3.20;1.00